| time (UTC) | temp C | wind direction | speed KPH | gust KPH | rain 1hr cm | rain 24hr cm | rain mn cm | humidity % | barometer mb |
| 20260906011558 | 29 | 294 | 0.0 | 3.2 | 0.00 | 0.00 | 0.00 | 82 | 1011.6 |
| 20260906010108 | 29 | 0 | 0.0 | 4.8 | 0.00 | 0.00 | 0.00 | 81 | 1011.8 |
| 20260906004606 | 29 | 280 | 0.0 | 3.2 | 0.00 | 0.00 | 0.00 | 81 | 1011.8 |
| 20260906003103 | 29 | 294 | 0.0 | 8.0 | 0.00 | 0.00 | 0.00 | 80 | 1011.6 |
| 20260906001611 | 29 | 168 | 0.0 | 6.4 | 0.00 | 0.00 | 0.00 | 80 | 1011.5 |
| 20260905234557 | 30 | 0 | 0.0 | 6.4 | 0.00 | 0.00 | 0.00 | 79 | 1011.7 |
| 20260905233110 | 30 | 144 | 0.0 | 8.0 | 0.00 | 0.00 | 0.00 | 78 | 1011.4 |
| 20260905231557 | 31 | 36 | 0.0 | 9.7 | 0.00 | 0.00 | 0.00 | 77 | 1011.5 |
| 20260905230055 | 31 | 9 | 0.0 | 9.7 | 0.00 | 0.00 | 0.00 | 75 | 1011.6 |
| 20260905224607 | 31 | 0 | 0.0 | 6.4 | 0.00 | 0.00 | 0.00 | 76 | 1011.8 |
| 20260905223058 | 31 | 0 | 3.2 | 11.3 | 0.00 | 0.00 | 0.00 | 75 | 1011.6 |
| 20260905221554 | 31 | 101 | 1.6 | 8.0 | 0.00 | 0.00 | 0.00 | 75 | 1011.7 |
| 20260905220104 | 31 | 113 | 3.2 | 8.0 | 0.00 | 0.00 | 0.00 | 74 | 1011.8 |
| 20260905214556 | 31 | 77 | 1.6 | 8.0 | 0.00 | 0.00 | 0.00 | 75 | 1011.8 |
| 20260905213100 | 31 | 54 | 1.6 | 6.4 | 0.00 | 0.00 | 0.00 | 74 | 1012.0 |
| 20260905211559 | 31 | 0 | 1.6 | 9.7 | 0.00 | 0.00 | 0.00 | 74 | 1012.1 |
| 20260905210110 | 31 | 313 | 3.2 | 8.0 | 0.00 | 0.00 | 0.00 | 74 | 1012.0 |
| 20260905204600 | 31 | 336 | 3.2 | 11.3 | 0.00 | 0.00 | 0.00 | 74 | 1012.0 |
| 20260905203102 | 31 | 5 | 1.6 | 6.4 | 0.00 | 0.00 | 0.00 | 74 | 1012.1 |
| 20260905201608 | 31 | 309 | 4.8 | 6.4 | 0.00 | 0.00 | 0.00 | 75 | 1012.0 |
| 20260905200135 | 31 | 274 | 3.2 | 12.9 | 0.00 | 0.00 | 0.00 | 75 | 1012.2 |
| 20260905194608 | 31 | 118 | 1.6 | 9.7 | 0.00 | 0.00 | 0.00 | 75 | 1012.4 |
| 20260905193053 | 31 | 41 | 3.2 | 11.3 | 0.00 | 0.00 | 0.00 | 75 | 1012.9 |
| 20260905191600 | 31 | 175 | 3.2 | 14.5 | 0.00 | 0.00 | 0.00 | 75 | 1013.0 |
| 20260905190058 | 31 | 350 | 1.6 | 9.7 | 0.00 | 0.00 | 0.00 | 74 | 1013.1 |
| 20260905184603 | 31 | 190 | 4.8 | 14.5 | 0.00 | 0.00 | 0.00 | 74 | 1013.2 |
| 20260905183100 | 31 | 28 | 1.6 | 9.7 | 0.00 | 0.00 | 0.00 | 73 | 1013.5 |
| 20260905181558 | 31 | 247 | 1.6 | 11.3 | 0.00 | 0.00 | 0.00 | 75 | 1013.7 |
| 20260905180101 | 31 | 281 | 4.8 | 11.3 | 0.00 | 0.00 | 0.00 | 77 | 1013.7 |
| 20260905174600 | 31 | 9 | 4.8 | 14.5 | 0.00 | 0.03 | 0.00 | 77 | 1013.9 |
| 20260905173057 | 30 | 328 | 1.6 | 12.9 | 0.00 | 0.03 | 0.00 | 76 | 1013.9 |
| 20260905171605 | 30 | 275 | 3.2 | 9.7 | 0.00 | 0.03 | 0.00 | 78 | 1014.0 |
| 20260905170101 | 30 | 246 | 1.6 | 6.4 | 0.00 | 0.03 | 0.00 | 79 | 1014.1 |
| 20260905164558 | 29 | 276 | 4.8 | 9.7 | 0.00 | 0.05 | 0.00 | 80 | 1014.3 |
| 20260905163104 | 29 | 261 | 11.3 | 16.1 | 0.00 | 0.05 | 0.00 | 79 | 1014.2 |
| 20260905161554 | 30 | 275 | 3.2 | 8.0 | 0.00 | 0.05 | 0.00 | 78 | 1014.4 |
| 20260905160059 | 30 | 162 | 1.6 | 14.5 | 0.00 | 0.05 | 0.00 | 78 | 1014.3 |
| 20260905154558 | 30 | 276 | 3.2 | 9.7 | 0.00 | 0.05 | 0.00 | 78 | 1014.2 |
| 20260905153100 | 30 | 204 | 1.6 | 9.7 | 0.00 | 0.05 | 0.00 | 79 | 1014.2 |
| 20260905151557 | 29 | 0 | 0.0 | 6.4 | 0.00 | 0.05 | 0.00 | 81 | 1014.1 |
| 20260905150059 | 29 | 273 | 3.2 | 6.4 | 0.00 | 0.05 | 0.00 | 82 | 1014.1 |
| 20260905144558 | 28 | 0 | 0.0 | 6.4 | 0.00 | 0.05 | 0.00 | 84 | 1014.3 |
| 20260905143108 | 28 | 336 | 1.6 | 4.8 | 0.00 | 0.05 | 0.00 | 85 | 1014.3 |
| 20260905141551 | 28 | 28 | 3.2 | 8.0 | 0.00 | 0.05 | 0.00 | 87 | 1014.3 |
| 20260905134611 | 27 | 0 | 0.0 | 4.8 | 0.00 | 0.05 | 0.00 | 89 | 1014.0 |
| 20260905133056 | 27 | 11 | 1.6 | 4.8 | 0.00 | 0.05 | 0.00 | 91 | 1014.1 |
| 20260905131611 | 27 | 0 | 0.0 | 4.8 | 0.00 | 0.05 | 0.00 | 92 | 1014.0 |
| 20260905130058 | 27 | 28 | 4.8 | 8.0 | 0.00 | 0.05 | 0.00 | 92 | 1014.0 |
| 20260905124604 | 27 | 11 | 4.8 | 8.0 | 0.00 | 0.05 | 0.00 | 93 | 1013.9 |
| 20260905123100 | 27 | 26 | 3.2 | 6.4 | 0.00 | 0.05 | 0.00 | 93 | 1013.8 |
| 20260905121556 | 27 | 34 | 3.2 | 4.8 | 0.00 | 0.05 | 0.00 | 93 | 1013.8 |
| 20260905120051 | 27 | 36 | 1.6 | 4.8 | 0.00 | 0.05 | 0.00 | 93 | 1013.5 |
| 20260905114611 | 27 | 48 | 3.2 | 6.4 | 0.00 | 0.05 | 0.00 | 93 | 1013.4 |
| 20260905113059 | 27 | 48 | 4.8 | 8.0 | 0.00 | 0.05 | 0.00 | 93 | 1013.5 |
| 20260905111606 | 27 | 38 | 4.8 | 11.3 | 0.00 | 0.05 | 0.00 | 92 | 1013.3 |
| 20260905104558 | 27 | 349 | 4.8 | 8.0 | 0.00 | 0.05 | 0.00 | 91 | 1013.2 |
| 20260905103100 | 27 | 244 | 0.0 | 3.2 | 0.00 | 0.05 | 0.00 | 90 | 1013.1 |
| 20260905101559 | 27 | 0 | 0.0 | 1.6 | 0.00 | 0.05 | 0.00 | 89 | 1013.0 |
| 20260905100105 | 27 | 281 | 1.6 | 4.8 | 0.00 | 0.05 | 0.00 | 89 | 1012.8 |
| 20260905094608 | 27 | 0 | 0.0 | 3.2 | 0.00 | 0.05 | 0.00 | 89 | 1013.0 |
| 20260905093101 | 27 | 0 | 0.0 | 3.2 | 0.00 | 0.05 | 0.00 | 89 | 1013.0 |
| 20260905091608 | 27 | 286 | 3.2 | 4.8 | 0.00 | 0.05 | 0.00 | 89 | 1012.9 |
| 20260905090058 | 27 | 0 | 0.0 | 1.6 | 0.00 | 0.05 | 0.00 | 88 | 1012.9 |
| 20260905084559 | 27 | 0 | 0.0 | 0.0 | 0.00 | 0.05 | 0.00 | 87 | 1013.0 |
| 20260905083051 | 27 | 0 | 0.0 | 6.4 | 0.00 | 0.05 | 0.00 | 87 | 1012.8 |
| 20260905081601 | 27 | 150 | 0.0 | 6.4 | 0.00 | 0.05 | 0.00 | 87 | 1012.7 |
| 20260905074600 | 27 | 165 | 0.0 | 3.2 | 0.00 | 0.05 | 0.00 | 87 | 1012.8 |
| 20260905073052 | 27 | 126 | 0.0 | 4.8 | 0.00 | 0.05 | 0.00 | 87 | 1012.9 |
| 20260905071604 | 27 | 0 | 0.0 | 1.6 | 0.00 | 0.05 | 0.00 | 87 | 1012.8 |
| 20260905070059 | 27 | 0 | 0.0 | 3.2 | 0.00 | 0.05 | 0.00 | 87 | 1012.7 |
| 20260905064559 | 27 | 0 | 1.6 | 6.4 | 0.00 | 0.05 | 0.00 | 86 | 1012.5 |
| 20260905063118 | 27 | 95 | 0.0 | 6.4 | 0.00 | 0.05 | 0.00 | 86 | 1012.5 |
| 20260905061612 | 27 | 129 | 1.6 | 4.8 | 0.00 | 0.05 | 0.00 | 86 | 1012.7 |
| 20260905060059 | 27 | 0 | 0.0 | 4.8 | 0.00 | 0.05 | 0.00 | 87 | 1012.8 |
| 20260905054555 | 27 | 0 | 0.0 | 4.8 | 0.00 | 0.05 | 0.00 | 86 | 1012.8 |
| 20260905053056 | 27 | 134 | 1.6 | 4.8 | 0.00 | 0.05 | 0.00 | 86 | 1013.0 |
| 20260905051550 | 27 | 0 | 0.0 | 0.0 | 0.00 | 0.05 | 0.00 | 86 | 1013.2 |
| 20260905044558 | 27 | 77 | 0.0 | 3.2 | 0.00 | 0.20 | 0.05 | 86 | 1013.4 |
| 20260905043126 | 27 | 0 | 0.0 | 1.6 | 0.00 | 0.20 | 0.05 | 87 | 1013.6 |
| 20260905041558 | 27 | 0 | 0.0 | 3.2 | 0.00 | 0.20 | 0.05 | 87 | 1013.6 |
| 20260905040119 | 27 | 101 | 1.6 | 4.8 | 0.00 | 0.20 | 0.05 | 87 | 1013.7 |
| 20260905034600 | 27 | 102 | 1.6 | 4.8 | 0.00 | 0.23 | 0.05 | 87 | 1013.9 |
| 20260905033056 | 27 | 0 | 3.2 | 6.4 | 0.00 | 0.23 | 0.05 | 87 | 1013.9 |
| 20260905031558 | 27 | 0 | 0.0 | 0.0 | 0.00 | 0.23 | 0.05 | 87 | 1014.0 |
| 20260905030057 | 27 | 0 | 0.0 | 0.0 | 0.00 | 0.23 | 0.05 | 87 | 1014.0 |
| 20260905024550 | 27 | 0 | 0.0 | 0.0 | 0.00 | 0.23 | 0.05 | 87 | 1014.2 |
| 20260905023104 | 27 | 0 | 0.0 | 3.2 | 0.00 | 0.23 | 0.05 | 87 | 1014.1 |
| 20260905021603 | 27 | 0 | 0.0 | 4.8 | 0.00 | 0.23 | 0.05 | 86 | 1014.1 |
| 20260905020057 | 27 | 0 | 0.0 | 4.8 | 0.00 | 0.23 | 0.05 | 86 | 1014.0 |
| 20260905014554 | 27 | 0 | 0.0 | 3.2 | 0.00 | 0.23 | 0.05 | 86 | 1013.8 |
| 20260905013103 | 27 | 0 | 0.0 | 1.6 | 0.00 | 0.23 | 0.05 | 86 | 1013.6 |